Time;durP1;ratioP1;P1;durP2;ratioP2;P2;SDS_P1;SDS_P2;PMS_P1;PMS_P2;Temp;Humidity;BMP_temperature;BMP_pressure;BME280_temperature;BME280_humidity;BME280_pressure;Samples;Min_cycle;Max_cycle;Signal;HPM_P1;HPM_P2
2023/10/04 00:01:16;;;;;;;13.23;3.30;;;13.30;99.90;;;;;;5035296;28;20088;-54
2023/10/04 00:03:43;;;;;;;13.35;3.45;;;13.30;99.90;;;;;;5035131;28;20045;-48
2023/10/04 00:06:10;;;;;;;14.20;3.53;;;13.20;99.90;;;;;;5035211;28;20050;-50
2023/10/04 00:08:37;;;;;;;16.85;4.40;;;13.20;99.90;;;;;;5034986;28;20056;-47
2023/10/04 00:11:04;;;;;;;15.80;3.67;;;13.20;99.90;;;;;;5035300;28;20044;-48
2023/10/04 00:13:33;;;;;;;13.05;3.33;;;13.20;99.90;;;;;;5034982;28;20044;-51
2023/10/04 00:16:00;;;;;;;15.82;3.55;;;13.10;99.90;;;;;;5034954;28;20076;-57
2023/10/04 00:18:27;;;;;;;13.70;3.55;;;13.10;99.90;;;;;;5035505;28;20110;-49
2023/10/04 00:20:55;;;;;;;18.05;3.55;;;13.10;99.90;;;;;;5034801;28;20045;-50
2023/10/04 00:23:22;;;;;;;15.32;3.42;;;13.00;99.90;;;;;;5035016;28;20030;-49
2023/10/04 00:25:49;;;;;;;15.80;4.20;;;13.00;99.90;;;;;;5034539;28;20037;-46
2023/10/04 00:28:17;;;;;;;16.08;4.07;;;13.00;99.90;;;;;;5034538;28;20044;-48
2023/10/04 00:30:44;;;;;;;16.65;3.72;;;13.00;99.90;;;;;;5034730;28;20042;-51
2023/10/04 00:33:12;;;;;;;20.83;4.22;;;13.00;99.90;;;;;;5034420;28;20096;-53
2023/10/04 00:35:40;;;;;;;13.52;3.17;;;12.90;99.90;;;;;;5033086;28;20413;-48
2023/10/04 00:38:09;;;;;;;18.00;4.25;;;12.90;99.90;;;;;;5034416;28;20050;-48
2023/10/04 00:40:38;;;;;;;13.57;3.60;;;12.90;99.90;;;;;;5033452;28;20132;-48
2023/10/04 00:43:14;;;;;;;13.15;3.40;;;12.90;99.90;;;;;;5035095;28;20115;-52
2023/10/04 00:45:42;;;;;;;15.55;3.80;;;12.90;99.90;;;;;;5032956;28;20548;-51
2023/10/04 00:48:15;;;;;;;11.90;3.60;;;12.80;99.90;;;;;;5034400;28;20033;-49
2023/10/04 00:50:42;;;;;;;17.00;3.70;;;12.80;99.90;;;;;;5034482;28;20044;-47
2023/10/04 00:53:09;;;;;;;19.08;3.90;;;12.80;99.90;;;;;;5034527;28;20033;-53
2023/10/04 00:55:39;;;;;;;11.98;4.32;;;12.70;99.90;;;;;;5034424;28;20060;-51
2023/10/04 00:58:06;;;;;;;14.48;3.55;;;12.70;99.90;;;;;;5034077;28;20071;-47
2023/10/04 01:00:33;;;;;;;12.77;3.25;;;12.70;99.90;;;;;;5032680;28;20041;-53
2023/10/04 01:03:00;;;;;;;13.30;3.33;;;12.70;99.90;;;;;;5033925;28;20080;-47
2023/10/04 01:05:28;;;;;;;15.23;3.80;;;12.70;99.90;;;;;;5033818;28;20071;-47
2023/10/04 01:07:55;;;;;;;16.65;4.07;;;12.70;99.90;;;;;;5034068;28;20080;-47
2023/10/04 01:10:30;;;;;;;15.85;3.45;;;12.70;99.90;;;;;;5032887;28;20435;-47
2023/10/04 01:12:57;;;;;;;14.27;4.32;;;12.60;99.90;;;;;;5034039;28;20115;-49
2023/10/04 01:15:31;;;;;;;17.70;4.30;;;12.60;99.90;;;;;;5016031;28;20041;-47
2023/10/04 01:17:59;;;;;;;16.77;3.73;;;12.60;99.90;;;;;;5033982;28;20053;-50
2023/10/04 01:20:30;;;;;;;15.63;4.10;;;12.50;99.90;;;;;;5033938;28;20041;-50
2023/10/04 01:23:06;;;;;;;17.45;3.70;;;12.50;99.90;;;;;;4996392;28;20049;-47
2023/10/04 01:25:33;;;;;;;16.70;4.13;;;12.50;99.90;;;;;;5013996;28;20112;-51
2023/10/04 01:28:00;;;;;;;21.02;4.60;;;12.50;99.90;;;;;;5013818;28;20045;-49
2023/10/04 01:30:27;;;;;;;15.88;3.33;;;12.50;99.90;;;;;;5013870;28;20489;-49
2023/10/04 01:32:54;;;;;;;13.40;3.85;;;12.50;99.90;;;;;;5013967;28;20042;-49
2023/10/04 01:35:25;;;;;;;16.85;3.50;;;12.50;99.90;;;;;;5013627;28;20045;-48
2023/10/04 01:37:52;;;;;;;16.48;3.60;;;12.40;99.90;;;;;;5012159;28;20050;-50
2023/10/04 01:40:19;;;;;;;14.55;3.42;;;12.50;99.90;;;;;;5013694;28;20046;-52
2023/10/04 01:42:46;;;;;;;16.75;3.92;;;12.40;99.90;;;;;;5013999;28;20100;-48
2023/10/04 01:45:15;;;;;;;14.90;3.53;;;12.40;99.90;;;;;;5012516;28;20044;-49
2023/10/04 01:47:43;;;;;;;14.32;4.15;;;12.50;99.90;;;;;;5013529;28;20099;-49
2023/10/04 01:50:10;;;;;;;16.33;3.42;;;12.40;99.90;;;;;;5013325;28;20045;-47
2023/10/04 01:52:38;;;;;;;17.02;4.00;;;12.40;99.90;;;;;;5012427;28;20141;-51
2023/10/04 01:55:10;;;;;;;15.70;3.63;;;12.40;99.90;;;;;;5012256;28;20136;-46
2023/10/04 01:57:38;;;;;;;15.13;3.80;;;12.30;99.90;;;;;;5012419;28;20107;-49
2023/10/04 02:00:06;;;;;;;20.20;3.92;;;12.30;99.90;;;;;;5012303;28;20129;-49
2023/10/04 02:02:40;;;;;;;16.15;3.30;;;12.30;99.90;;;;;;5013556;28;20087;-52
2023/10/04 02:05:14;;;;;;;15.63;3.60;;;12.30;99.90;;;;;;5013644;28;20042;-50
2023/10/04 02:07:41;;;;;;;16.23;3.55;;;12.30;99.90;;;;;;5012220;28;20050;-48
2023/10/04 02:10:18;;;;;;;12.20;3.30;;;12.30;99.90;;;;;;5013357;28;20038;-51
2023/10/04 02:12:45;;;;;;;16.23;3.70;;;12.30;99.90;;;;;;5028763;28;20137;-47
2023/10/04 02:15:15;;;;;;;14.20;3.80;;;12.30;99.90;;;;;;5011882;28;20129;-47
2023/10/04 02:17:43;;;;;;;18.60;3.80;;;12.30;99.90;;;;;;5012017;28;20489;-50
2023/10/04 02:20:13;;;;;;;18.75;3.63;;;12.30;99.90;;;;;;5013743;28;20045;-47
2023/10/04 02:22:39;;;;;;;20.13;3.42;;;12.30;99.90;;;;;;5013253;28;20129;-48
2023/10/04 02:25:06;;;;;;;14.77;4.03;;;12.20;99.90;;;;;;5013337;28;20100;-46
2023/10/04 02:27:33;;;;;;;16.10;3.40;;;12.20;99.90;;;;;;5013309;28;20458;-48
2023/10/04 02:30:04;;;;;;;16.42;3.20;;;12.20;99.90;;;;;;5013340;28;20034;-51
2023/10/04 02:32:31;;;;;;;17.95;3.38;;;12.20;99.90;;;;;;5013396;28;20108;-52
2023/10/04 02:34:59;;;;;;;18.67;3.75;;;12.20;99.90;;;;;;5011651;28;20134;-51
2023/10/04 02:37:27;;;;;;;15.85;3.20;;;12.20;99.90;;;;;;5011731;28;20060;-48
2023/10/04 02:39:57;;;;;;;13.95;3.67;;;12.20;99.90;;;;;;5011862;28;20042;-49
2023/10/04 02:42:24;;;;;;;18.45;3.70;;;12.20;99.90;;;;;;5011913;28;20042;-49
2023/10/04 02:44:52;;;;;;;16.38;3.63;;;12.20;99.90;;;;;;5013185;28;20057;-47
2023/10/04 02:47:19;;;;;;;20.85;3.63;;;12.20;99.90;;;;;;5012677;28;20117;-50
2023/10/04 02:49:46;;;;;;;14.30;3.33;;;12.20;99.90;;;;;;5012843;28;20113;-48
2023/10/04 02:52:13;;;;;;;9.68;2.83;;;12.20;99.90;;;;;;5011544;28;20442;-48
2023/10/04 02:54:41;;;;;;;13.27;2.90;;;12.20;99.90;;;;;;5011715;28;20053;-48
2023/10/04 02:57:07;;;;;;;18.13;3.75;;;12.20;99.90;;;;;;5013126;28;20116;-48
2023/10/04 02:59:35;;;;;;;13.40;3.30;;;12.10;99.90;;;;;;5012014;28;20046;-49
2023/10/04 03:02:03;;;;;;;14.20;3.05;;;12.10;99.90;;;;;;5013426;28;20042;-46
2023/10/04 03:04:30;;;;;;;10.63;2.65;;;12.10;99.90;;;;;;5016406;28;20037;-46
2023/10/04 03:06:58;;;;;;;18.00;3.25;;;12.10;99.90;;;;;;5016735;28;20046;-45
2023/10/04 03:09:25;;;;;;;17.75;3.17;;;12.10;99.90;;;;;;5014974;28;20041;-48
2023/10/04 03:11:53;;;;;;;14.63;3.03;;;12.10;99.90;;;;;;5015369;28;20048;-47
2023/10/04 03:14:20;;;;;;;14.15;3.30;;;12.00;99.90;;;;;;5014979;28;20056;-54
2023/10/04 03:16:46;;;;;;;17.10;3.83;;;12.00;99.90;;;;;;5015900;28;20041;-51
2023/10/04 03:19:16;;;;;;;16.30;3.10;;;12.00;99.90;;;;;;5014920;28;20088;-47
2023/10/04 03:21:45;;;;;;;13.88;3.05;;;12.00;99.90;;;;;;5015998;28;20057;-47
2023/10/04 03:24:14;;;;;;;15.88;3.28;;;12.00;99.90;;;;;;5014825;28;20070;-49
2023/10/04 03:26:41;;;;;;;13.57;2.90;;;11.90;99.90;;;;;;5031457;28;20038;-45
2023/10/04 03:29:11;;;;;;;16.00;2.75;;;11.90;99.90;;;;;;5014771;28;20056;-45
2023/10/04 03:31:39;;;;;;;14.00;3.65;;;11.90;99.90;;;;;;5014540;28;20050;-48
2023/10/04 03:34:07;;;;;;;10.70;2.63;;;11.90;99.90;;;;;;5016604;28;20042;-48
2023/10/04 03:36:38;;;;;;;16.83;3.30;;;11.90;99.90;;;;;;5014475;28;20398;-50
2023/10/04 03:39:09;;;;;;;15.10;3.08;;;11.90;99.90;;;;;;5014735;28;20050;-46
2023/10/04 03:41:42;;;;;;;14.25;3.55;;;11.90;99.90;;;;;;5014677;28;20046;-48
2023/10/04 03:44:11;;;;;;;15.25;3.30;;;11.90;99.90;;;;;;5014704;28;20132;-49
2023/10/04 03:46:39;;;;;;;11.70;2.65;;;11.90;99.90;;;;;;5014331;28;20041;-48
2023/10/04 03:49:06;;;;;;;8.95;2.35;;;11.90;99.90;;;;;;5014611;28;20042;-47
2023/10/04 03:51:33;;;;;;;12.70;3.15;;;11.90;99.90;;;;;;5014138;28;20073;-46
2023/10/04 03:54:07;;;;;;;15.88;2.90;;;11.90;99.90;;;;;;5016075;28;20049;-47
2023/10/04 03:56:37;;;;;;;16.52;2.67;;;11.90;99.90;;;;;;5014423;28;20489;-47
2023/10/04 03:59:07;;;;;;;19.30;3.20;;;11.90;99.90;;;;;;5014062;28;20057;-47
2023/10/04 04:01:37;;;;;;;16.75;2.70;;;11.80;99.90;;;;;;5014092;28;20120;-46
2023/10/04 04:04:04;;;;;;;11.43;2.78;;;11.80;99.90;;;;;;5014352;28;20140;-47
2023/10/04 04:06:31;;;;;;;12.48;2.78;;;11.80;99.90;;;;;;5015593;28;20063;-51
2023/10/04 04:09:03;;;;;;;12.82;2.60;;;11.80;99.90;;;;;;5014075;28;20499;-47
2023/10/04 04:11:31;;;;;;;12.70;2.60;;;11.80;99.90;;;;;;5013903;28;20512;-48
2023/10/04 04:13:58;;;;;;;14.77;2.80;;;11.80;99.90;;;;;;5013423;28;20096;-50
2023/10/04 04:16:25;;;;;;;16.20;3.15;;;11.80;99.90;;;;;;5015137;28;20054;-51
2023/10/04 04:18:54;;;;;;;11.77;2.83;;;11.80;99.90;;;;;;5013543;28;20055;-46
2023/10/04 04:21:25;;;;;;;18.90;3.00;;;11.80;99.90;;;;;;5014068;28;20057;-48
2023/10/04 04:23:53;;;;;;;16.38;3.65;;;11.80;99.90;;;;;;5013900;28;20046;-46
2023/10/04 04:26:23;;;;;;;11.32;2.67;;;11.80;99.90;;;;;;5013627;28;20038;-46
2023/10/04 04:28:51;;;;;;;11.73;2.25;;;11.80;99.90;;;;;;5013566;28;20042;-46
2023/10/04 04:31:20;;;;;;;14.30;2.60;;;11.80;99.90;;;;;;5013892;28;20532;-47
2023/10/04 04:33:48;;;;;;;16.33;2.90;;;11.70;99.90;;;;;;5013354;28;20493;-49
2023/10/04 04:36:25;;;;;;;12.63;2.97;;;11.80;99.90;;;;;;5013513;28;20037;-52
2023/10/04 04:38:55;;;;;;;10.75;3.08;;;11.80;99.90;;;;;;5013571;28;20116;-45
2023/10/04 04:41:25;;;;;;;17.38;2.92;;;11.70;99.90;;;;;;5013189;28;20077;-46
2023/10/04 04:43:53;;;;;;;11.57;2.72;;;11.70;99.90;;;;;;5013259;28;20090;-45
2023/10/04 04:46:22;;;;;;;12.70;2.70;;;11.70;99.90;;;;;;5014747;28;20038;-48
2023/10/04 04:48:54;;;;;;;14.52;2.97;;;11.70;99.90;;;;;;5012848;28;20525;-45
2023/10/04 04:51:22;;;;;;;14.85;3.20;;;11.70;99.90;;;;;;5012992;28;20046;-45
2023/10/04 04:53:54;;;;;;;9.68;2.72;;;11.70;99.90;;;;;;5013324;28;20125;-45
2023/10/04 04:56:27;;;;;;;12.23;2.50;;;11.60;99.90;;;;;;5012915;28;20569;-53
2023/10/04 04:59:07;;;;;;;12.13;2.33;;;11.60;99.90;;;;;;5012673;28;20057;-45
2023/10/04 05:01:38;;;;;;;15.05;2.95;;;11.60;99.90;;;;;;5013252;28;20161;-48
2023/10/04 05:04:06;;;;;;;12.32;2.90;;;11.60;99.90;;;;;;5013124;28;20053;-46
2023/10/04 05:06:33;;;;;;;10.85;2.65;;;11.60;99.90;;;;;;5029156;28;20128;-45
2023/10/04 05:09:00;;;;;;;12.85;2.55;;;11.60;99.90;;;;;;5013791;28;20115;-48
2023/10/04 05:11:28;;;;;;;13.40;2.75;;;11.60;99.90;;;;;;5014204;28;20034;-54
2023/10/04 05:13:56;;;;;;;12.68;2.83;;;11.50;99.90;;;;;;5014138;28;20045;-45
2023/10/04 05:16:24;;;;;;;11.68;2.78;;;11.50;99.90;;;;;;5014080;28;20077;-51
2023/10/04 05:18:53;;;;;;;13.63;2.78;;;11.50;99.90;;;;;;5014218;28;20050;-45
2023/10/04 05:21:20;;;;;;;13.70;2.88;;;11.40;99.90;;;;;;5013684;28;20042;-46
2023/10/04 05:23:47;;;;;;;15.38;3.78;;;11.40;99.90;;;;;;5013790;28;20053;-52
2023/10/04 05:26:14;;;;;;;16.40;2.85;;;11.40;99.90;;;;;;5013247;28;20053;-50
2023/10/04 05:28:41;;;;;;;19.35;3.00;;;11.40;99.90;;;;;;5013782;28;20042;-47
2023/10/04 05:31:08;;;;;;;14.35;3.05;;;11.40;99.90;;;;;;5013687;28;20117;-51
2023/10/04 05:33:36;;;;;;;17.13;3.40;;;11.40;99.90;;;;;;5014235;28;20055;-49
2023/10/04 05:36:03;;;;;;;14.00;2.70;;;11.30;99.90;;;;;;5014015;28;20034;-53
2023/10/04 05:38:32;;;;;;;16.15;2.90;;;11.30;99.90;;;;;;5013532;28;20481;-48
2023/10/04 05:41:00;;;;;;;11.32;2.30;;;11.30;99.90;;;;;;5013942;28;20050;-48
2023/10/04 05:43:29;;;;;;;14.20;2.90;;;11.30;99.90;;;;;;5013903;28;20070;-48
2023/10/04 05:45:57;;;;;;;13.02;2.80;;;11.30;99.90;;;;;;5013933;28;20541;-48
2023/10/04 05:48:26;;;;;;;10.65;3.35;;;11.30;99.90;;;;;;5012263;28;20041;-49
2023/10/04 05:50:58;;;;;;;19.50;3.38;;;11.30;99.90;;;;;;5013317;28;20037;-50
2023/10/04 05:53:26;;;;;;;15.07;2.95;;;11.30;99.90;;;;;;5013486;28;20038;-45
2023/10/04 05:55:53;;;;;;;13.68;2.47;;;11.30;99.90;;;;;;5013836;28;20041;-47
2023/10/04 05:58:21;;;;;;;7.80;2.42;;;11.30;99.90;;;;;;5013187;28;20049;-51
2023/10/04 06:00:55;;;;;;;17.42;2.85;;;11.30;99.90;;;;;;5013492;28;20125;-47
2023/10/04 06:03:23;;;;;;;11.02;2.65;;;11.30;99.90;;;;;;5013673;28;20140;-48
2023/10/04 06:05:53;;;;;;;11.95;2.65;;;11.30;99.90;;;;;;5013439;28;20044;-48
2023/10/04 06:08:21;;;;;;;14.07;2.58;;;11.40;99.90;;;;;;5013083;28;20473;-50
2023/10/04 06:10:48;;;;;;;10.68;2.70;;;11.40;99.90;;;;;;5013690;28;20037;-45
2023/10/04 06:13:17;;;;;;;14.13;2.65;;;11.40;99.90;;;;;;5013538;28;20038;-50
2023/10/04 06:15:44;;;;;;;14.93;2.75;;;11.40;99.90;;;;;;5013472;28;20490;-51
2023/10/04 06:18:16;;;;;;;13.45;2.33;;;11.40;99.90;;;;;;5013116;28;20054;-47
2023/10/04 06:20:43;;;;;;;14.02;3.03;;;11.40;99.90;;;;;;5012066;28;20058;-46
2023/10/04 06:23:10;;;;;;;13.30;2.70;;;11.40;99.90;;;;;;5013280;28;20088;-51
2023/10/04 06:25:37;;;;;;;13.38;2.90;;;11.40;99.90;;;;;;5013293;28;20434;-45
2023/10/04 06:28:04;;;;;;;17.23;2.78;;;11.50;99.90;;;;;;5013186;28;20453;-47
2023/10/04 06:30:31;;;;;;;12.90;3.00;;;11.50;99.90;;;;;;5012980;28;20046;-43
2023/10/04 06:32:58;;;;;;;13.63;3.03;;;11.50;99.90;;;;;;5013126;28;20042;-45
2023/10/04 06:35:25;;;;;;;14.45;2.75;;;11.60;99.90;;;;;;5013244;28;20040;-51
2023/10/04 06:37:52;;;;;;;11.45;2.83;;;11.60;99.90;;;;;;5016245;28;20053;-47
2023/10/04 06:40:22;;;;;;;14.88;2.42;;;11.60;99.90;;;;;;5015604;28;20052;-51
2023/10/04 06:42:49;;;;;;;12.10;2.83;;;11.60;99.90;;;;;;5017428;28;20048;-47
2023/10/04 06:45:16;;;;;;;9.55;2.42;;;11.60;99.90;;;;;;5017103;28;20049;-50
2023/10/04 06:47:44;;;;;;;15.50;2.53;;;11.60;99.90;;;;;;5015362;28;20052;-49
2023/10/04 06:50:13;;;;;;;20.42;3.25;;;11.60;99.90;;;;;;5016904;28;20042;-48
2023/10/04 06:52:41;;;;;;;14.50;2.65;;;11.70;99.90;;;;;;5016394;28;20588;-46
2023/10/04 06:55:08;;;;;;;9.07;2.00;;;11.70;99.90;;;;;;5016916;28;20436;-48
2023/10/04 06:57:35;;;;;;;16.77;2.97;;;11.70;99.90;;;;;;5016320;28;20042;-51
2023/10/04 07:00:12;;;;;;;13.98;2.75;;;11.80;99.90;;;;;;5015389;28;20049;-50
2023/10/04 07:02:40;;;;;;;13.63;2.47;;;11.80;99.90;;;;;;5016861;28;20088;-47
2023/10/04 07:05:08;;;;;;;13.38;2.38;;;11.90;99.90;;;;;;5016483;28;20038;-49
2023/10/04 07:07:36;;;;;;;11.02;2.22;;;11.90;99.90;;;;;;5016500;28;20041;-46
2023/10/04 07:10:03;;;;;;;12.90;2.45;;;11.90;99.90;;;;;;5016102;28;20041;-52
2023/10/04 07:12:31;;;;;;;10.20;2.30;;;12.00;99.90;;;;;;5016405;28;20049;-47
2023/10/04 07:14:58;;;;;;;9.38;2.28;;;12.00;99.90;;;;;;5016456;28;20038;-50
2023/10/04 07:17:25;;;;;;;10.60;2.20;;;12.10;99.90;;;;;;5016562;28;20189;-50
2023/10/04 07:19:51;;;;;;;12.02;2.22;;;12.20;99.90;;;;;;5014817;28;20038;-53
2023/10/04 07:22:21;;;;;;;11.52;2.22;;;12.20;99.90;;;;;;5014847;28;20074;-45
2023/10/04 07:24:48;;;;;;;14.68;4.18;;;12.30;99.90;;;;;;5016437;28;20060;-48
2023/10/04 07:27:15;;;;;;;11.05;2.50;;;12.40;99.90;;;;;;5015885;28;20038;-50
2023/10/04 07:29:41;;;;;;;10.23;2.00;;;12.40;99.90;;;;;;5015853;28;20444;-48
2023/10/04 07:32:08;;;;;;;9.32;1.90;;;12.50;99.90;;;;;;5016087;28;20430;-47
2023/10/04 07:34:35;;;;;;;12.32;2.00;;;12.50;99.90;;;;;;5016295;28;20037;-50
2023/10/04 07:37:03;;;;;;;11.90;2.20;;;12.60;99.90;;;;;;5016168;28;20076;-46
2023/10/04 07:39:32;;;;;;;10.80;2.10;;;12.60;99.90;;;;;;5016246;28;20033;-49
2023/10/04 07:41:59;;;;;;;13.00;1.98;;;12.70;99.90;;;;;;5015496;28;20084;-45
2023/10/04 07:44:30;;;;;;;10.30;2.30;;;12.70;99.90;;;;;;5019580;28;20061;-50
2023/10/04 07:46:57;;;;;;;10.93;2.05;;;12.80;99.90;;;;;;5030239;28;20045;-49
2023/10/04 07:49:24;;;;;;;11.45;2.30;;;12.90;99.90;;;;;;5033753;28;20044;-46
2023/10/04 07:51:51;;;;;;;12.40;2.15;;;13.00;99.90;;;;;;5033679;28;20057;-48
2023/10/04 07:54:19;;;;;;;12.38;2.40;;;13.00;99.90;;;;;;5034502;28;20076;-50
2023/10/04 07:56:46;;;;;;;15.10;2.10;;;13.10;99.90;;;;;;5034365;28;20041;-48
2023/10/04 07:59:12;;;;;;;9.18;1.80;;;13.20;99.90;;;;;;5030941;28;20049;-48
2023/10/04 08:01:39;;;;;;;14.00;2.88;;;13.30;99.90;;;;;;5034371;28;20052;-50
2023/10/04 08:04:09;;;;;;;12.88;2.53;;;13.40;99.90;;;;;;5034317;28;20457;-47
2023/10/04 08:06:38;;;;;;;13.82;2.35;;;13.40;99.90;;;;;;5033664;28;20389;-50
2023/10/04 08:09:05;;;;;;;8.57;2.00;;;13.50;99.90;;;;;;5034442;28;20493;-46
2023/10/04 08:11:33;;;;;;;9.90;2.05;;;13.60;99.90;;;;;;5033669;28;20393;-46
2023/10/04 08:14:00;;;;;;;9.48;2.17;;;13.60;99.90;;;;;;5034181;28;20519;-51
2023/10/04 08:16:27;;;;;;;10.23;1.75;;;13.60;99.90;;;;;;5034085;28;20045;-45
2023/10/04 08:18:57;;;;;;;10.95;1.95;;;13.70;99.90;;;;;;5034393;28;20099;-49
2023/10/04 08:21:24;;;;;;;10.40;2.25;;;13.70;99.90;;;;;;5033590;28;20045;-45
2023/10/04 08:23:51;;;;;;;10.73;1.88;;;13.80;99.90;;;;;;5033767;28;20041;-50
2023/10/04 08:26:18;;;;;;;9.40;2.10;;;13.80;99.90;;;;;;5034151;28;20095;-50
2023/10/04 08:28:45;;;;;;;12.40;2.25;;;13.80;99.90;;;;;;5032793;28;20033;-46
2023/10/04 08:31:16;;;;;;;10.82;2.03;;;13.80;99.90;;;;;;5033848;28;20136;-46
2023/10/04 08:33:48;;;;;;;10.00;1.90;;;13.90;99.90;;;;;;5033626;28;20059;-49
2023/10/04 08:36:16;;;;;;;9.25;2.05;;;13.90;99.90;;;;;;5027858;28;20077;-46
2023/10/04 08:38:44;;;;;;;11.18;2.22;;;13.90;99.90;;;;;;5033626;28;20123;-50
2023/10/04 08:41:11;;;;;;;10.30;2.47;;;14.00;99.90;;;;;;5033640;28;20045;-50
2023/10/04 08:43:38;;;;;;;11.35;2.58;;;14.00;99.90;;;;;;5033070;28;20124;-46
2023/10/04 08:46:07;;;;;;;14.05;2.78;;;14.00;99.90;;;;;;5033567;28;20112;-51
2023/10/04 08:48:34;;;;;;;12.70;3.45;;;14.00;99.90;;;;;;5033603;28;20110;-48
2023/10/04 08:51:01;;;;;;;11.88;2.60;;;14.00;99.90;;;;;;5033162;28;20132;-49
2023/10/04 08:53:28;;;;;;;10.80;2.35;;;14.10;99.90;;;;;;5033311;28;20041;-50
2023/10/04 08:55:55;;;;;;;11.70;2.80;;;14.10;99.90;;;;;;5033233;28;20370;-47
2023/10/04 08:58:22;;;;;;;9.30;2.40;;;14.10;99.90;;;;;;5033396;28;20029;-51
2023/10/04 09:00:50;;;;;;;11.93;2.40;;;14.10;99.90;;;;;;5033364;28;20116;-47
2023/10/04 09:03:17;;;;;;;14.40;2.92;;;14.20;99.90;;;;;;5032142;28;20034;-47
2023/10/04 09:05:50;;;;;;;13.30;3.40;;;14.20;99.90;;;;;;5032824;28;20076;-48
2023/10/04 09:08:17;;;;;;;8.48;2.40;;;14.30;99.90;;;;;;5019491;28;20042;-50
2023/10/04 09:10:44;;;;;;;9.70;2.42;;;14.30;99.90;;;;;;5032930;28;20107;-51
2023/10/04 09:13:12;;;;;;;12.73;2.63;;;14.40;99.90;;;;;;5033169;28;20094;-48
2023/10/04 09:15:39;;;;;;;14.77;3.45;;;14.40;99.90;;;;;;5033398;28;20370;-50
2023/10/04 09:18:07;;;;;;;9.02;2.63;;;14.50;99.90;;;;;;5033671;28;20462;-48
2023/10/04 09:20:35;;;;;;;13.23;2.65;;;14.50;99.90;;;;;;5033286;28;20069;-47
2023/10/04 09:23:03;;;;;;;12.95;2.70;;;14.50;99.90;;;;;;5032204;28;20530;-47
2023/10/04 09:25:30;;;;;;;8.45;2.17;;;14.70;99.90;;;;;;5032871;28;20046;-46
2023/10/04 09:27:57;;;;;;;8.27;2.20;;;14.80;99.90;;;;;;5032922;28;20136;-48
2023/10/04 09:30:23;;;;;;;7.63;2.03;;;14.90;99.90;;;;;;5032697;28;20041;-47
2023/10/04 09:32:51;;;;;;;9.93;2.20;;;15.00;99.90;;;;;;5032686;28;20038;-46
2023/10/04 09:35:18;;;;;;;9.38;2.17;;;15.10;99.90;;;;;;5032702;28;20037;-48
2023/10/04 09:37:45;;;;;;;6.75;2.17;;;15.20;99.90;;;;;;5032370;28;20473;-47
2023/10/04 09:40:12;;;;;;;7.93;2.13;;;15.20;99.90;;;;;;5032440;28;20053;-51
2023/10/04 09:42:39;;;;;;;8.25;1.95;;;15.30;99.90;;;;;;5032694;28;20041;-46
2023/10/04 09:45:09;;;;;;;10.93;2.28;;;15.50;99.90;;;;;;5031506;28;20038;-52
2023/10/04 09:47:36;;;;;;;7.65;1.98;;;15.50;99.90;;;;;;5032341;28;20046;-47
2023/10/04 09:50:03;;;;;;;8.70;2.33;;;15.60;99.90;;;;;;5028681;28;20530;-46
2023/10/04 09:52:30;;;;;;;7.32;1.83;;;15.60;99.90;;;;;;5032053;28;20115;-50
2023/10/04 09:54:57;;;;;;;10.40;2.38;;;15.60;99.90;;;;;;5032463;28;20056;-51
2023/10/04 09:57:27;;;;;;;11.15;2.20;;;15.60;99.90;;;;;;5029662;28;20124;-54
2023/10/04 09:59:54;;;;;;;37.47;5.28;;;15.70;99.90;;;;;;5032576;28;20037;-54
2023/10/04 10:02:21;;;;;;;14.77;8.73;;;15.80;99.90;;;;;;5032139;28;20049;-48
2023/10/04 10:04:48;;;;;;;8.90;2.63;;;15.80;99.90;;;;;;5032170;28;20041;-50
2023/10/04 10:07:15;;;;;;;15.27;2.35;;;15.90;99.90;;;;;;5031980;28;20465;-46
2023/10/04 10:09:42;;;;;;;9.98;2.55;;;15.90;99.90;;;;;;5032102;28;20049;-46
2023/10/04 10:12:29;;;;;;;9.73;2.33;;;16.00;99.90;;;;;;5036113;28;20068;-45
2023/10/04 10:14:56;;;;;;;15.30;2.50;;;16.00;99.90;;;;;;5038983;28;20047;-44
2023/10/04 10:17:23;;;;;;;11.90;2.17;;;16.00;99.90;;;;;;5038714;28;20046;-46
2023/10/04 10:19:50;;;;;;;11.20;2.15;;;16.10;99.90;;;;;;5038580;28;20155;-47
2023/10/04 10:22:18;;;;;;;10.15;2.13;;;16.20;99.90;;;;;;5038586;28;20492;-50
2023/10/04 10:24:45;;;;;;;8.57;2.22;;;16.30;99.90;;;;;;5038790;28;20050;-50
2023/10/04 10:27:13;;;;;;;13.60;2.67;;;16.30;99.90;;;;;;5038493;28;20096;-46
2023/10/04 10:29:39;;;;;;;15.73;2.78;;;16.30;99.90;;;;;;5039019;28;20042;-48
2023/10/04 10:32:09;;;;;;;21.00;3.58;;;16.30;99.90;;;;;;5038673;28;20041;-48
2023/10/04 10:34:36;;;;;;;13.18;3.00;;;16.40;99.90;;;;;;5039122;28;20044;-45
2023/10/04 10:37:03;;;;;;;15.23;2.83;;;16.40;99.90;;;;;;5037121;28;20491;-47
2023/10/04 10:39:30;;;;;;;11.48;2.72;;;16.40;99.90;;;;;;5038815;28;20052;-45
2023/10/04 10:41:57;;;;;;;7.75;1.90;;;16.30;99.90;;;;;;5038392;28;20041;-44
2023/10/04 10:44:30;;;;;;;12.48;2.50;;;16.30;99.90;;;;;;5037688;28;20069;-45
2023/10/04 10:47:00;;;;;;;11.35;2.47;;;16.20;99.90;;;;;;5038489;28;20128;-48
2023/10/04 10:49:27;;;;;;;9.98;2.20;;;16.20;99.90;;;;;;5038733;28;20041;-45
2023/10/04 10:51:54;;;;;;;7.65;1.90;;;16.20;99.90;;;;;;5038017;28;20077;-47
2023/10/04 10:54:21;;;;;;;10.07;2.35;;;16.30;99.90;;;;;;5039153;28;20435;-50
2023/10/04 10:56:48;;;;;;;8.07;1.70;;;16.20;99.90;;;;;;5038669;28;20124;-46
2023/10/04 10:59:15;;;;;;;8.63;2.10;;;16.20;99.90;;;;;;5035152;28;20084;-48
2023/10/04 11:01:43;;;;;;;5.85;2.10;;;16.20;99.90;;;;;;5038551;28;20053;-51
2023/10/04 11:04:10;;;;;;;7.75;2.05;;;16.20;99.90;;;;;;5037763;28;20064;-47
2023/10/04 11:06:38;;;;;;;9.65;2.42;;;16.30;99.90;;;;;;5038711;28;20049;-51
2023/10/04 11:09:05;;;;;;;12.68;2.50;;;16.30;99.90;;;;;;5038466;28;20057;-46
2023/10/04 11:11:31;;;;;;;10.00;2.40;;;16.40;99.90;;;;;;5038020;28;20082;-49
2023/10/04 11:13:59;;;;;;;7.60;2.00;;;16.40;99.90;;;;;;5038228;28;20441;-49
2023/10/04 11:16:27;;;;;;;7.18;2.00;;;16.50;99.90;;;;;;5038589;28;20374;-49
2023/10/04 11:18:54;;;;;;;8.55;3.50;;;16.60;99.90;;;;;;5036632;28;20045;-54
2023/10/04 11:21:22;;;;;;;8.65;2.05;;;16.70;99.90;;;;;;5038012;28;20056;-47
2023/10/04 11:23:48;;;;;;;5.80;2.20;;;16.70;99.90;;;;;;5032952;28;20455;-52
2023/10/04 11:26:16;;;;;;;8.13;2.13;;;16.70;99.90;;;;;;5035085;28;20029;-49
2023/10/04 11:28:43;;;;;;;6.60;2.25;;;16.80;99.90;;;;;;5034468;28;20050;-50
2023/10/04 11:31:10;;;;;;;10.00;3.00;;;16.90;99.90;;;;;;5035238;28;20033;-47
2023/10/04 11:33:37;;;;;;;11.55;2.50;;;17.00;99.90;;;;;;5035152;28;20037;-49
2023/10/04 11:36:04;;;;;;;5.75;1.70;;;17.10;99.90;;;;;;5035300;28;20136;-44
2023/10/04 11:38:33;;;;;;;6.28;1.60;;;17.20;99.90;;;;;;5034657;28;20040;-49
2023/10/04 11:40:59;;;;;;;4.43;1.63;;;17.30;99.90;;;;;;5035060;28;20038;-51
2023/10/04 11:43:26;;;;;;;9.13;2.17;;;17.30;99.90;;;;;;5034767;28;20049;-46
2023/10/04 11:45:53;;;;;;;8.52;1.80;;;17.40;99.90;;;;;;5034991;28;20443;-46
2023/10/04 11:48:21;;;;;;;10.35;1.80;;;17.40;99.90;;;;;;5033290;28;20547;-44
2023/10/04 11:50:48;;;;;;;6.60;1.92;;;17.50;99.90;;;;;;5033466;28;20049;-44
2023/10/04 11:53:15;;;;;;;11.32;2.47;;;17.80;99.90;;;;;;5034347;28;20048;-45
2023/10/04 11:55:42;;;;;;;4.28;1.58;;;17.90;99.90;;;;;;5034662;28;20247;-44
2023/10/04 11:58:10;;;;;;;7.10;1.73;;;18.00;99.90;;;;;;5034618;28;20043;-48
2023/10/04 12:00:37;;;;;;;7.72;1.67;;;18.00;99.90;;;;;;5033454;28;20045;-45
2023/10/04 12:03:06;;;;;;;11.55;2.15;;;18.10;99.90;;;;;;5034346;28;20055;-46
2023/10/04 12:05:33;;;;;;;11.95;2.10;;;18.20;99.90;;;;;;5034201;28;20049;-50
2023/10/04 12:08:01;;;;;;;10.07;2.20;;;18.20;99.90;;;;;;5031527;28;20045;-45
2023/10/04 12:10:28;;;;;;;5.28;1.63;;;18.30;99.90;;;;;;5032712;28;20038;-47
2023/10/04 12:12:57;;;;;;;6.53;1.70;;;18.30;99.90;;;;;;5032921;28;20037;-48
2023/10/04 12:15:25;;;;;;;5.63;1.75;;;18.30;99.90;;;;;;5022342;28;20509;-47
2023/10/04 12:17:52;;;;;;;7.70;1.70;;;18.40;99.90;;;;;;5032556;28;20053;-45
2023/10/04 12:20:24;;;;;;;4.55;1.75;;;18.30;99.90;;;;;;5033779;28;20041;-47
2023/10/04 12:22:51;;;;;;;5.03;1.60;;;18.30;99.90;;;;;;5033992;28;20382;-49
2023/10/04 12:25:21;;;;;;;7.65;2.25;;;18.30;99.90;;;;;;5033838;28;20125;-46
2023/10/04 12:27:48;;;;;;;7.28;1.85;;;18.40;99.90;;;;;;5033951;28;20044;-45
2023/10/04 12:30:18;;;;;;;7.55;1.92;;;18.50;99.60;;;;;;5033900;28;20551;-47
2023/10/04 12:32:46;;;;;;;4.22;1.67;;;18.50;99.50;;;;;;5033704;28;20091;-46
2023/10/04 12:35:14;;;;;;;6.68;1.75;;;18.50;99.40;;;;;;5033341;28;20095;-45
2023/10/04 12:37:41;;;;;;;7.00;1.58;;;18.40;99.10;;;;;;5032581;28;20083;-52
2023/10/04 12:40:17;;;;;;;5.03;1.52;;;18.40;99.40;;;;;;5033731;28;20037;-48
2023/10/04 12:42:44;;;;;;;7.20;2.10;;;18.40;99.70;;;;;;5031662;28;20448;-45